Time;durP1;ratioP1;P1;durP2;ratioP2;P2;SDS_P1;SDS_P2;PMS_P1;PMS_P2;Temp;Humidity;BMP_temperature;BMP_pressure;BME280_temperature;BME280_humidity;BME280_pressure;Samples;Min_cycle;Max_cycle;Signal;HPM_P1;HPM_P2
2021/06/20 00:01:50;;;;;;;934.60;863.30;;;21.80;99.90;;;;;;6325544;22;20469;-79
2021/06/20 00:04:18;;;;;;;731.10;686.50;;;21.70;99.90;;;;;;6328638;22;20402;-79
2021/06/20 00:06:49;;;;;;;778.93;732.63;;;21.70;99.90;;;;;;6329788;22;20390;-78
2021/06/20 00:09:17;;;;;;;650.20;610.30;;;21.70;99.90;;;;;;6329342;22;20426;-80
2021/06/20 00:11:46;;;;;;;1007.00;930.67;;;21.70;99.90;;;;;;6329386;22;20470;-80
2021/06/20 00:14:13;;;;;;;222.60;210.47;;;21.70;99.90;;;;;;6313560;22;20548;-81
2021/06/20 00:16:41;;;;;;;823.50;770.33;;;21.70;99.90;;;;;;6321929;22;20641;-84
2021/06/20 00:19:09;;;;;;;831.43;770.87;;;21.70;99.90;;;;;;6322065;22;20394;-85
2021/06/20 00:21:37;;;;;;;554.57;524.27;;;21.70;99.90;;;;;;6324198;22;20420;-84
2021/06/20 00:24:05;;;;;;;611.40;578.60;;;21.70;99.90;;;;;;6322559;22;20474;-85
2021/06/20 00:26:32;;;;;;;589.87;558.03;;;21.50;99.90;;;;;;6320227;22;20436;-87
2021/06/20 00:29:00;;;;;;;534.83;503.43;;;21.40;99.90;;;;;;6321124;22;20481;-84
2021/06/20 00:31:27;;;;;;;743.87;697.43;;;21.50;99.90;;;;;;6325169;22;20426;-83
2021/06/20 00:33:53;;;;;;;479.17;446.43;;;21.30;99.90;;;;;;6336429;22;20382;-84
2021/06/20 00:36:20;;;;;;;154.57;145.03;;;21.20;99.90;;;;;;6334214;22;20470;-84
2021/06/20 00:38:48;;;;;;;330.70;309.67;;;21.20;99.90;;;;;;6334999;22;20397;-84
2021/06/20 00:41:15;;;;;;;153.90;145.23;;;21.30;99.90;;;;;;6334928;22;20441;-82
2021/06/20 00:43:42;;;;;;;379.03;353.53;;;21.30;99.90;;;;;;6334440;22;20409;-87
2021/06/20 00:46:10;;;;;;;381.37;361.30;;;21.30;99.90;;;;;;6334001;22;20481;-85
2021/06/20 00:48:36;;;;;;;272.67;257.33;;;21.10;99.90;;;;;;6333786;22;20528;-87
2021/06/20 00:51:04;;;;;;;282.30;267.07;;;21.20;99.90;;;;;;6315252;22;20493;-86
2021/06/20 00:53:31;;;;;;;359.80;340.03;;;21.20;99.90;;;;;;6310445;22;20405;-87
2021/06/20 00:56:00;;;;;;;536.13;504.73;;;21.10;99.90;;;;;;6311368;22;20505;-87
2021/06/20 00:58:27;;;;;;;213.17;199.43;;;21.10;99.90;;;;;;6309271;22;20412;-88
2021/06/20 01:00:54;;;;;;;349.77;329.93;;;21.00;99.90;;;;;;6309339;22;20488;-87
2021/06/20 01:03:21;;;;;;;131.00;122.67;;;21.00;99.90;;;;;;6308739;22;20406;-88
2021/06/20 01:05:48;;;;;;;436.60;409.67;;;20.90;99.90;;;;;;6308679;22;20429;-86
2021/06/20 01:08:15;;;;;;;198.73;186.80;;;21.00;99.90;;;;;;6311873;22;20416;-86
2021/06/20 01:10:42;;;;;;;501.20;474.73;;;21.00;99.90;;;;;;6310256;22;20416;-86
2021/06/20 01:13:14;;;;;;;185.83;174.47;;;20.90;99.90;;;;;;6314545;22;20496;-86
2021/06/20 01:15:42;;;;;;;423.57;400.23;;;20.90;99.90;;;;;;6314633;22;20533;-85
2021/06/20 01:18:10;;;;;;;112.00;104.40;;;20.80;99.90;;;;;;6314376;22;20489;-85
2021/06/20 01:20:38;;;;;;;136.60;128.17;;;20.80;99.90;;;;;;6316718;22;20405;-84
2021/06/20 01:23:06;;;;;;;84.83;78.90;;;20.80;99.90;;;;;;6319732;22;20528;-85
2021/06/20 01:25:35;;;;;;;96.90;90.70;;;20.80;99.90;;;;;;6318767;22;20445;-85
2021/06/20 01:28:05;;;;;;;87.87;81.67;;;20.90;99.90;;;;;;6321057;22;20485;-85
2021/06/20 01:30:34;;;;;;;101.53;94.53;;;20.90;99.90;;;;;;6318483;22;20394;-85
2021/06/20 01:33:04;;;;;;;88.63;82.33;;;20.90;99.90;;;;;;6319253;22;20468;-82
2021/06/20 01:35:31;;;;;;;90.57;84.20;;;20.90;99.90;;;;;;6321541;22;20454;-84
2021/06/20 01:37:59;;;;;;;127.97;120.23;;;20.80;99.90;;;;;;6323823;22;20449;-83
2021/06/20 01:40:27;;;;;;;35.70;20.97;;;20.80;99.90;;;;;;6322878;22;20430;-83
2021/06/20 01:42:54;;;;;;;158.47;149.40;;;20.80;99.90;;;;;;6322318;22;20505;-84
2021/06/20 01:45:23;;;;;;;23.53;13.53;;;20.80;99.90;;;;;;6322456;22;20497;-84
2021/06/20 01:47:51;;;;;;;24.13;9.20;;;20.80;99.90;;;;;;6322144;22;20393;-85
2021/06/20 01:50:20;;;;;;;96.77;90.03;;;20.80;99.90;;;;;;6320641;22;20406;-84
2021/06/20 01:52:47;;;;;;;177.87;168.03;;;20.80;99.90;;;;;;6321860;22;20410;-85
2021/06/20 01:55:16;;;;;;;41.40;36.90;;;20.70;99.90;;;;;;6323348;22;20418;-85
2021/06/20 01:57:45;;;;;;;77.07;71.73;;;20.70;99.90;;;;;;6319913;22;20462;-84
2021/06/20 02:00:14;;;;;;;34.33;24.10;;;20.70;99.90;;;;;;6320705;22;20406;-83
2021/06/20 02:02:41;;;;;;;67.30;62.00;;;20.80;99.90;;;;;;6321509;22;20445;-85
2021/06/20 02:05:10;;;;;;;37.10;30.93;;;20.70;99.90;;;;;;6322503;22;20465;-85
2021/06/20 02:07:37;;;;;;;32.63;23.73;;;20.80;99.90;;;;;;6322629;22;20434;-84
2021/06/20 02:10:09;;;;;;;272.70;258.30;;;20.90;99.90;;;;;;6322035;22;20406;-84
2021/06/20 02:12:36;;;;;;;23.87;12.83;;;20.90;99.90;;;;;;6321626;22;20455;-85
2021/06/20 02:15:06;;;;;;;174.20;164.90;;;20.90;99.90;;;;;;6322288;22;20461;-84
2021/06/20 02:17:35;;;;;;;62.73;57.90;;;21.00;99.90;;;;;;6322984;22;20417;-83
2021/06/20 02:20:07;;;;;;;38.13;33.63;;;21.00;99.90;;;;;;6323425;22;20421;-84
2021/06/20 02:22:34;;;;;;;80.40;74.67;;;21.00;99.90;;;;;;6325799;22;20457;-84
2021/06/20 02:25:01;;;;;;;44.80;38.97;;;21.00;99.90;;;;;;6323572;22;20426;-86
2021/06/20 02:27:28;;;;;;;276.83;262.53;;;21.00;99.90;;;;;;6322888;22;20410;-83
2021/06/20 02:29:56;;;;;;;102.37;95.90;;;21.00;99.90;;;;;;6324059;22;20473;-85
2021/06/20 02:32:26;;;;;;;61.57;56.70;;;21.00;99.90;;;;;;6324256;22;20493;-84
2021/06/20 02:34:54;;;;;;;84.57;79.00;;;21.00;99.90;;;;;;6323509;22;20461;-84
2021/06/20 02:37:21;;;;;;;71.40;66.23;;;21.00;99.90;;;;;;6325335;22;20489;-84
2021/06/20 02:39:49;;;;;;;30.50;23.80;;;21.10;99.90;;;;;;6325592;22;20429;-83
2021/06/20 02:42:16;;;;;;;34.13;27.57;;;21.10;99.90;;;;;;6325380;22;20477;-84
2021/06/20 02:44:44;;;;;;;22.07;9.77;;;21.10;99.90;;;;;;6325366;22;20807;-84
2021/06/20 02:47:11;;;;;;;28.50;16.60;;;21.00;99.90;;;;;;6325748;22;20453;-84
2021/06/20 02:49:40;;;;;;;52.70;48.40;;;21.00;99.90;;;;;;6325115;22;20402;-85
2021/06/20 02:52:09;;;;;;;22.57;11.83;;;21.00;99.90;;;;;;6324346;22;20979;-85
2021/06/20 02:54:36;;;;;;;34.93;28.90;;;21.00;99.90;;;;;;6325813;22;20734;-84
2021/06/20 02:57:04;;;;;;;92.03;85.53;;;20.90;99.90;;;;;;6326296;22;20395;-83
2021/06/20 02:59:31;;;;;;;88.13;82.03;;;20.90;99.90;;;;;;6325637;22;20421;-84
2021/06/20 03:01:58;;;;;;;75.73;70.23;;;20.90;99.90;;;;;;6324319;22;20488;-83
2021/06/20 03:04:24;;;;;;;62.67;57.60;;;20.90;99.90;;;;;;6324843;22;20437;-83
2021/06/20 03:06:53;;;;;;;59.10;54.33;;;20.80;99.90;;;;;;6320065;22;20401;-83
2021/06/20 03:09:20;;;;;;;167.20;157.60;;;20.80;99.90;;;;;;6321869;22;20436;-84
2021/06/20 03:11:46;;;;;;;33.93;28.03;;;20.80;99.90;;;;;;6322304;22;20397;-84
2021/06/20 03:14:15;;;;;;;148.90;139.97;;;20.80;99.90;;;;;;6320434;22;20461;-83
2021/06/20 03:16:42;;;;;;;55.93;51.10;;;20.70;99.90;;;;;;6320121;22;20474;-83
2021/06/20 03:19:10;;;;;;;95.67;89.23;;;20.60;99.90;;;;;;6318311;22;20995;-84
2021/06/20 03:21:37;;;;;;;42.90;38.20;;;20.60;99.90;;;;;;6322449;22;22282;-83
2021/06/20 03:24:06;;;;;;;105.87;99.10;;;20.60;99.90;;;;;;6321769;22;20406;-81
2021/06/20 03:26:33;;;;;;;40.20;33.67;;;20.50;99.90;;;;;;6322807;22;20438;-82
2021/06/20 03:29:00;;;;;;;84.10;77.80;;;20.50;99.90;;;;;;6325245;22;20410;-81
2021/06/20 03:31:28;;;;;;;66.80;61.30;;;20.50;99.90;;;;;;6323273;22;20430;-82
2021/06/20 03:34:04;;;;;;;30.20;21.10;;;20.50;99.90;;;;;;6320086;22;20441;-81
2021/06/20 03:36:32;;;;;;;21.33;8.17;;;20.50;99.90;;;;;;6321707;22;20402;-82
2021/06/20 03:38:59;;;;;;;36.83;27.90;;;20.50;99.90;;;;;;6323393;22;20466;-82
2021/06/20 03:41:27;;;;;;;21.57;8.43;;;20.50;99.90;;;;;;6322363;22;20465;-82
2021/06/20 03:43:54;;;;;;;23.87;9.97;;;20.50;99.90;;;;;;6322987;22;20405;-83
2021/06/20 03:46:21;;;;;;;23.80;8.10;;;20.60;99.90;;;;;;6322601;22;20752;-82
2021/06/20 03:48:48;;;;;;;48.67;44.57;;;20.60;99.90;;;;;;6319743;22;20496;-83
2021/06/20 03:51:15;;;;;;;1293.93;999.90;;;20.60;99.90;;;;;;6314641;22;20397;-83
2021/06/20 03:53:44;;;;;;;198.47;186.57;;;20.70;99.90;;;;;;6316154;22;20255;-84
2021/06/20 03:56:11;;;;;;;41.50;37.13;;;20.80;99.90;;;;;;6315538;22;20440;-84
2021/06/20 03:58:39;;;;;;;27.07;14.93;;;20.90;99.90;;;;;;6316226;22;20434;-84
2021/06/20 04:01:06;;;;;;;19.40;5.53;;;20.90;99.90;;;;;;6319941;22;20966;-85
2021/06/20 04:03:32;;;;;;;36.43;29.53;;;21.00;99.90;;;;;;6319392;22;20529;-85
2021/06/20 04:05:59;;;;;;;22.63;15.37;;;20.90;99.90;;;;;;6320893;22;20509;-84
2021/06/20 04:08:26;;;;;;;23.80;10.63;;;20.90;99.90;;;;;;6319257;22;20410;-84
2021/06/20 04:10:53;;;;;;;23.37;13.27;;;20.90;99.90;;;;;;6317466;22;20486;-82
2021/06/20 04:13:19;;;;;;;27.17;18.47;;;20.90;99.90;;;;;;6318950;22;20430;-83
2021/06/20 04:15:48;;;;;;;54.67;50.17;;;20.80;99.90;;;;;;6319999;22;20840;-82
2021/06/20 04:18:15;;;;;;;28.43;21.47;;;20.80;99.90;;;;;;6319206;22;20496;-83
2021/06/20 04:20:42;;;;;;;19.67;9.33;;;20.70;99.90;;;;;;6318791;22;20436;-83
2021/06/20 04:23:09;;;;;;;31.93;28.37;;;20.70;99.90;;;;;;6318793;22;20848;-81
2021/06/20 04:25:37;;;;;;;21.50;6.43;;;20.60;99.90;;;;;;6318762;22;20432;-82
2021/06/20 04:28:04;;;;;;;42.07;35.47;;;20.60;99.90;;;;;;6318100;22;20492;-82
2021/06/20 04:30:31;;;;;;;30.07;16.67;;;20.60;99.90;;;;;;6317359;22;20485;-83
2021/06/20 04:33:00;;;;;;;19.77;7.30;;;20.60;99.90;;;;;;6319263;22;20415;-82
2021/06/20 04:35:27;;;;;;;20.30;10.63;;;20.60;99.90;;;;;;6318549;22;20978;-82
2021/06/20 04:37:54;;;;;;;26.33;14.90;;;20.60;99.90;;;;;;6320060;22;20861;-82
2021/06/20 04:40:22;;;;;;;21.33;6.97;;;20.50;99.90;;;;;;6320212;22;20416;-81
2021/06/20 04:42:56;;;;;;;17.60;5.57;;;20.50;99.90;;;;;;6320202;22;20445;-81
2021/06/20 04:45:24;;;;;;;18.83;4.30;;;20.60;99.90;;;;;;6321000;22;20505;-82
2021/06/20 04:47:51;;;;;;;24.20;10.77;;;20.60;99.90;;;;;;6319103;22;20409;-81
2021/06/20 04:50:19;;;;;;;18.37;5.20;;;20.60;99.90;;;;;;6319745;22;20445;-82
2021/06/20 04:52:46;;;;;;;20.10;11.30;;;20.70;99.90;;;;;;6319789;22;20473;-80
2021/06/20 04:55:14;;;;;;;17.40;6.03;;;20.70;99.90;;;;;;6322271;22;20461;-81
2021/06/20 04:57:41;;;;;;;18.27;5.37;;;20.80;99.90;;;;;;6322927;22;20517;-81
2021/06/20 05:00:10;;;;;;;15.77;2.90;;;20.90;99.90;;;;;;6319938;22;20425;-81
2021/06/20 05:02:37;;;;;;;20.03;5.20;;;20.80;99.90;;;;;;6321071;22;20437;-80
2021/06/20 05:05:06;;;;;;;19.83;7.10;;;20.80;99.90;;;;;;6323069;22;20517;-81
2021/06/20 05:07:34;;;;;;;23.73;18.17;;;21.00;99.90;;;;;;6324083;22;20437;-83
2021/06/20 05:10:01;;;;;;;15.00;4.33;;;20.90;99.90;;;;;;6316757;22;20488;-82
2021/06/20 05:12:28;;;;;;;16.30;3.80;;;21.00;99.90;;;;;;6320881;22;20437;-82
2021/06/20 05:14:55;;;;;;;17.80;6.13;;;21.20;99.90;;;;;;6322662;22;21012;-83
2021/06/20 05:17:21;;;;;;;19.37;6.40;;;21.40;99.90;;;;;;6320866;22;20910;-82
2021/06/20 05:19:48;;;;;;;21.17;5.63;;;21.40;99.90;;;;;;6322557;22;20418;-81
2021/06/20 05:22:16;;;;;;;19.17;6.70;;;21.40;99.90;;;;;;6319846;22;20469;-81
2021/06/20 05:24:44;;;;;;;17.00;4.37;;;21.30;99.90;;;;;;6319737;22;20454;-81
2021/06/20 05:27:11;;;;;;;27.90;21.97;;;21.40;99.90;;;;;;6319186;22;20436;-82
2021/06/20 05:29:38;;;;;;;17.07;4.10;;;21.40;99.90;;;;;;6319504;22;20412;-82
2021/06/20 05:32:06;;;;;;;21.90;9.40;;;21.40;99.90;;;;;;6322637;22;20484;-81
2021/06/20 05:34:33;;;;;;;18.40;6.20;;;21.50;99.90;;;;;;6322689;22;20437;-80
2021/06/20 05:37:00;;;;;;;15.63;3.17;;;21.40;99.90;;;;;;6318236;22;20492;-82
2021/06/20 05:39:27;;;;;;;22.80;9.00;;;21.60;99.90;;;;;;6316518;22;20437;-80
2021/06/20 05:41:55;;;;;;;25.60;10.43;;;21.60;99.90;;;;;;6316484;22;20433;-80
2021/06/20 05:44:22;;;;;;;26.80;11.40;;;21.70;99.90;;;;;;6316504;22;20534;-79
2021/06/20 05:46:49;;;;;;;18.07;2.87;;;21.80;99.90;;;;;;6320765;22;20406;-78
2021/06/20 05:49:16;;;;;;;19.47;7.70;;;21.80;99.90;;;;;;6322225;22;20386;-79
2021/06/20 05:51:43;;;;;;;27.50;17.47;;;21.90;99.90;;;;;;6329694;22;20410;-79
2021/06/20 05:54:10;;;;;;;17.73;2.87;;;21.90;99.90;;;;;;6329440;22;20433;-79
2021/06/20 05:56:37;;;;;;;21.90;11.43;;;22.10;99.90;;;;;;6328254;22;20402;-79
2021/06/20 05:59:06;;;;;;;21.07;10.20;;;22.30;99.90;;;;;;6327408;22;20409;-79
2021/06/20 06:01:33;;;;;;;23.50;8.60;;;22.40;99.90;;;;;;6328551;22;20500;-79
2021/06/20 06:03:59;;;;;;;36.93;33.30;;;22.40;99.90;;;;;;6329142;22;20510;-79
2021/06/20 06:06:26;;;;;;;28.57;24.03;;;22.40;99.90;;;;;;6329427;22;20414;-78
2021/06/20 06:08:53;;;;;;;24.90;11.67;;;22.30;99.90;;;;;;6323649;22;20409;-81
2021/06/20 06:11:21;;;;;;;82.47;76.63;;;22.30;99.90;;;;;;6316298;22;20473;-85
2021/06/20 06:13:47;;;;;;;28.93;19.57;;;22.30;99.90;;;;;;6317419;22;20422;-81
2021/06/20 06:16:15;;;;;;;20.80;5.77;;;22.10;99.90;;;;;;6315638;22;20816;-80
2021/06/20 06:18:45;;;;;;;19.57;7.87;;;22.00;99.90;;;;;;6313295;22;20442;-81
2021/06/20 06:21:12;;;;;;;19.40;7.47;;;22.10;99.90;;;;;;6313259;22;20489;-80
2021/06/20 06:23:39;;;;;;;20.93;4.10;;;22.20;99.90;;;;;;6313617;22;20545;-80
2021/06/20 06:26:06;;;;;;;23.70;8.00;;;22.20;99.90;;;;;;6314387;22;20432;-81
2021/06/20 06:28:33;;;;;;;27.07;11.10;;;22.20;99.90;;;;;;6313801;22;20410;-80
2021/06/20 06:31:01;;;;;;;33.90;25.07;;;22.30;99.90;;;;;;6311859;22;20497;-82
2021/06/20 06:33:30;;;;;;;24.67;9.77;;;22.50;99.90;;;;;;6315626;22;20402;-81
2021/06/20 06:35:56;;;;;;;22.97;9.67;;;22.70;99.90;;;;;;6316664;22;20437;-81
2021/06/20 06:38:24;;;;;;;27.60;18.73;;;22.70;99.90;;;;;;6317497;22;20433;-81
2021/06/20 06:40:51;;;;;;;27.30;10.50;;;22.90;99.90;;;;;;6316266;22;20492;-81
2021/06/20 06:43:18;;;;;;;38.50;27.43;;;23.00;99.90;;;;;;6313956;22;20438;-81
2021/06/20 06:45:45;;;;;;;28.47;17.47;;;23.20;99.90;;;;;;6313884;22;20422;-80
2021/06/20 06:48:12;;;;;;;103.80;96.57;;;23.20;99.90;;;;;;6315133;22;20413;-79
2021/06/20 06:50:41;;;;;;;39.40;27.73;;;23.30;99.90;;;;;;6321655;22;20420;-81
2021/06/20 06:53:08;;;;;;;49.33;44.37;;;23.10;99.90;;;;;;6322775;22;20417;-81
2021/06/20 06:55:35;;;;;;;37.03;30.47;;;23.20;99.90;;;;;;6320262;22;20433;-80
2021/06/20 06:58:02;;;;;;;62.13;56.30;;;23.10;99.90;;;;;;6321885;22;20439;-80
2021/06/20 07:00:29;;;;;;;42.77;38.13;;;22.90;99.90;;;;;;6289630;22;92141;-83
2021/06/20 07:02:56;;;;;;;24.93;8.40;;;22.90;99.90;;;;;;6300849;22;20532;-85
2021/06/20 07:05:25;;;;;;;29.87;13.90;;;23.00;99.90;;;;;;6314885;22;20474;-86
2021/06/20 07:07:54;;;;;;;38.50;30.10;;;23.10;99.90;;;;;;6314594;22;20406;-83
2021/06/20 07:10:21;;;;;;;34.67;23.90;;;23.00;99.90;;;;;;6316784;22;20494;-85
2021/06/20 07:12:48;;;;;;;27.57;11.50;;;23.00;99.90;;;;;;6312883;22;20455;-81
2021/06/20 07:15:16;;;;;;;50.27;45.43;;;23.20;99.90;;;;;;6324497;22;20390;-81
2021/06/20 07:17:43;;;;;;;61.43;56.07;;;23.10;99.90;;;;;;6327176;22;20458;-82
2021/06/20 07:20:15;;;;;;;42.20;31.67;;;23.10;99.90;;;;;;6322939;22;20394;-81
2021/06/20 07:22:42;;;;;;;146.87;137.07;;;23.00;99.90;;;;;;6318119;22;20393;-83
2021/06/20 07:25:13;;;;;;;43.90;35.67;;;22.80;99.90;;;;;;6320440;22;20436;-86
2021/06/20 07:27:40;;;;;;;25.70;9.93;;;22.90;99.90;;;;;;6320858;22;20405;-82
2021/06/20 07:30:10;;;;;;;40.83;30.27;;;23.00;99.90;;;;;;6317106;22;20429;-84
2021/06/20 07:32:37;;;;;;;23.83;9.60;;;23.20;99.90;;;;;;6322252;22;20402;-84
2021/06/20 07:35:04;;;;;;;30.10;17.83;;;23.30;99.90;;;;;;6321949;22;20458;-83
2021/06/20 07:37:31;;;;;;;27.33;13.70;;;23.30;99.90;;;;;;6321808;22;20432;-84
2021/06/20 07:39:58;;;;;;;31.83;21.00;;;23.60;99.90;;;;;;6317762;22;20426;-83
2021/06/20 07:42:27;;;;;;;82.43;75.83;;;23.90;99.90;;;;;;6321475;22;20499;-82
2021/06/20 07:44:53;;;;;;;180.27;169.70;;;24.10;99.90;;;;;;6318278;22;20478;-83
2021/06/20 07:47:20;;;;;;;262.47;247.43;;;24.00;99.90;;;;;;6318125;22;20413;-83
2021/06/20 07:49:47;;;;;;;155.07;145.07;;;24.10;99.90;;;;;;6315194;22;20449;-80
2021/06/20 07:52:14;;;;;;;75.60;69.33;;;23.70;99.90;;;;;;6319082;22;20440;-80
2021/06/20 07:54:49;;;;;;;126.13;117.97;;;23.50;99.90;;;;;;6321184;22;20426;-79
2021/06/20 07:57:16;;;;;;;98.10;90.83;;;23.70;99.90;;;;;;6317419;22;20443;-79
2021/06/20 07:59:44;;;;;;;116.83;108.63;;;23.60;99.90;;;;;;6318077;22;20758;-79
2021/06/20 08:02:11;;;;;;;32.43;17.77;;;23.50;99.90;;;;;;6313540;22;20473;-80
2021/06/20 08:04:38;;;;;;;74.97;68.07;;;23.40;99.90;;;;;;6307719;22;20484;-80
2021/06/20 08:07:05;;;;;;;65.27;59.47;;;23.50;99.90;;;;;;6315914;22;20409;-80
2021/06/20 08:09:32;;;;;;;47.50;42.47;;;23.70;99.90;;;;;;6319598;22;20416;-80
2021/06/20 08:11:59;;;;;;;129.17;120.73;;;23.50;99.90;;;;;;6316355;22;20981;-83
2021/06/20 08:14:26;;;;;;;51.73;45.23;;;23.40;99.90;;;;;;6315117;22;20778;-81
2021/06/20 08:16:55;;;;;;;77.10;70.70;;;23.50;99.90;;;;;;6315462;22;20408;-82
2021/06/20 08:19:22;;;;;;;106.03;98.10;;;23.60;99.90;;;;;;6312766;22;20420;-80
2021/06/20 08:21:52;;;;;;;88.77;81.90;;;23.50;99.90;;;;;;6308993;22;20420;-81
2021/06/20 08:24:19;;;;;;;29.40;9.67;;;23.50;99.90;;;;;;6309187;22;20468;-81
2021/06/20 08:26:46;;;;;;;67.77;61.97;;;23.80;99.90;;;;;;6309839;22;20406;-80
2021/06/20 08:29:13;;;;;;;88.97;81.87;;;24.30;99.90;;;;;;6310854;22;20480;-82
2021/06/20 08:31:40;;;;;;;112.90;104.93;;;24.70;99.90;;;;;;6310205;22;20500;-81
2021/06/20 08:34:09;;;;;;;207.40;195.20;;;24.50;99.90;;;;;;6308888;22;20422;-80
2021/06/20 08:36:37;;;;;;;334.50;315.67;;;24.60;99.90;;;;;;6310051;22;20498;-80
2021/06/20 08:39:07;;;;;;;79.53;72.90;;;24.60;99.90;;;;;;6310615;22;20405;-81
2021/06/20 08:41:39;;;;;;;487.90;454.97;;;25.00;99.90;;;;;;6311661;22;20394;-81
2021/06/20 08:44:15;;;;;;;520.57;487.83;;;25.40;99.90;;;;;;6309314;22;20450;-82
2021/06/20 08:46:42;;;;;;;441.10;415.13;;;25.60;99.90;;;;;;6311033;22;20396;-81
2021/06/20 08:49:11;;;;;;;1999.90;999.90;;;26.10;99.90;;;;;;6311123;22;20429;-81
2021/06/20 08:51:38;;;;;;;875.37;692.23;;;26.10;99.90;;;;;;6312542;22;20900;-82
2021/06/20 08:54:06;;;;;;;1999.90;999.90;;;26.50;99.90;;;;;;6312366;22;20435;-82
2021/06/20 08:56:33;;;;;;;1999.90;999.90;;;26.70;99.90;;;;;;6313830;22;20808;-81
2021/06/20 08:59:00;;;;;;;419.30;355.67;;;27.00;99.90;;;;;;6316056;22;20437;-82
2021/06/20 09:01:26;;;;;;;87.90;80.43;;;27.10;99.90;;;;;;6313722;22;20402;-82
2021/06/20 09:03:56;;;;;;;223.60;189.20;;;27.50;99.90;;;;;;6312402;22;20509;-81
2021/06/20 09:06:27;;;;;;;20.60;12.43;;;27.60;99.90;;;;;;6321378;22;20425;-82
2021/06/20 09:08:55;;;;;;;95.53;89.20;;;27.50;99.90;;;;;;6320068;22;20425;-82
2021/06/20 09:11:25;;;;;;;12.60;1.80;;;27.10;99.90;;;;;;6324564;22;21006;-82
2021/06/20 09:14:02;;;;;;;10.90;1.80;;;26.90;99.90;;;;;;6319259;22;20540;-83
2021/06/20 09:16:30;;;;;;;84.20;76.40;;;26.90;99.90;;;;;;6318142;22;20409;-81
2021/06/20 09:18:57;;;;;;;8.10;1.70;;;26.90;99.90;;;;;;6313657;22;20405;-82
2021/06/20 09:21:26;;;;;;;5.77;1.33;;;27.00;99.90;;;;;;6313723;22;20802;-83
2021/06/20 09:23:53;;;;;;;9.20;1.50;;;26.80;99.90;;;;;;6311557;22;20545;-83
2021/06/20 09:26:33;;;;;;;17.23;3.57;;;26.50;99.90;;;;;;6312142;22;20531;-84
2021/06/20 09:29:00;;;;;;;6.37;1.30;;;26.30;99.90;;;;;;6312607;22;20472;-83
2021/06/20 09:31:42;;;;;;;7.40;2.37;;;26.40;99.90;;;;;;6312508;22;20496;-81
2021/06/20 09:34:09;;;;;;;9.67;1.47;;;26.50;99.90;;;;;;6310876;22;20426;-81
2021/06/20 09:36:40;;;;;;;6.80;1.30;;;26.40;99.90;;;;;;6311150;22;20430;-81
2021/06/20 09:39:21;;;;;;;8.10;1.63;;;26.50;99.90;;;;;;6309779;22;20394;-81
2021/06/20 09:42:00;;;;;;;5.50;1.40;;;26.60;99.90;;;;;;6310052;22;20375;-81
2021/06/20 09:44:35;;;;;;;6.90;1.40;;;26.60;99.90;;;;;;6306373;22;20449;-82
2021/06/20 09:47:08;;;;;;;5.47;1.40;;;27.10;99.90;;;;;;6311553;22;20429;-82
2021/06/20 09:49:36;;;;;;;7.03;1.40;;;27.60;99.90;;;;;;6318106;22;20399;-82
2021/06/20 09:52:05;;;;;;;4.83;1.40;;;27.70;99.90;;;;;;6316707;22;20405;-84
2021/06/20 09:54:34;;;;;;;9.03;1.40;;;28.10;99.90;;;;;;6313426;22;20433;-82
2021/06/20 09:57:15;;;;;;;7.70;1.80;;;29.00;99.90;;;;;;6316709;22;20410;-82
2021/06/20 09:59:43;;;;;;;5.17;1.13;;;29.50;99.90;;;;;;6322228;22;20402;-82
2021/06/20 10:02:11;;;;;;;4.73;1.17;;;29.50;99.90;;;;;;6322402;22;20474;-83
2021/06/20 10:04:40;;;;;;;4.83;1.40;;;29.40;99.90;;;;;;6325688;22;20464;-82
2021/06/20 10:07:10;;;;;;;5.40;1.50;;;29.50;99.90;;;;;;6325183;22;20437;-81
2021/06/20 10:09:38;;;;;;;5.37;1.40;;;29.20;99.90;;;;;;6329334;22;20417;-82
2021/06/20 10:12:06;;;;;;;6.53;1.40;;;28.30;99.90;;;;;;6324429;22;20429;-82
2021/06/20 10:14:34;;;;;;;4.77;1.40;;;28.00;99.90;;;;;;6323222;22;20426;-82
2021/06/20 10:17:06;;;;;;;6.20;1.30;;;28.00;99.90;;;;;;6326114;22;20489;-81
2021/06/20 10:19:33;;;;;;;4.90;1.50;;;28.70;99.90;;;;;;6319612;22;20390;-83
2021/06/20 10:22:02;;;;;;;6.77;1.30;;;29.40;99.90;;;;;;6319249;22;20448;-85
2021/06/20 10:24:31;;;;;;;4.00;1.20;;;30.60;99.90;;;;;;6323933;22;20809;-82
2021/06/20 10:27:00;;;;;;;4.30;1.33;;;30.60;99.90;;;;;;6320591;22;20963;-84
2021/06/20 10:29:29;;;;;;;6.43;1.30;;;30.50;99.90;;;;;;6314820;22;20410;-83
2021/06/20 10:31:58;;;;;;;6.47;1.53;;;31.00;99.90;;;;;;6314053;22;20421;-84
2021/06/20 10:34:27;;;;;;;6.47;1.70;;;31.20;99.90;;;;;;6317638;22;20505;-84
2021/06/20 10:36:55;;;;;;;5.10;1.40;;;31.90;99.90;;;;;;6313035;22;20409;-83
2021/06/20 10:39:23;;;;;;;5.10;1.23;;;32.20;99.90;;;;;;6314135;22;20412;-81
2021/06/20 10:42:07;;;;;;;5.23;1.40;;;33.00;99.90;;;;;;6312977;22;20430;-81
2021/06/20 10:44:44;;;;;;;4.60;1.30;;;33.90;99.90;;;;;;6312890;22;20453;-81
2021/06/20 10:47:11;;;;;;;5.33;1.30;;;34.20;98.00;;;;;;6315012;22;20756;-82
2021/06/20 10:49:39;;;;;;;5.60;1.20;;;34.30;96.40;;;;;;6315764;22;20434;-81
2021/06/20 10:52:16;;;;;;;4.33;1.00;;;34.50;96.60;;;;;;6317632;22;20410;-82
2021/06/20 10:54:43;;;;;;;7.70;1.63;;;34.70;90.90;;;;;;6317555;22;20524;-81
2021/06/20 10:57:24;;;;;;;5.03;1.10;;;34.70;96.30;;;;;;6318754;22;20779;-83
2021/06/20 10:59:56;;;;;;;3.90;1.00;;;34.10;85.70;;;;;;6318824;22;20453;-83
2021/06/20 11:02:24;;;;;;;4.20;1.07;;;33.60;90.50;;;;;;6320503;22;20402;-82
2021/06/20 11:04:51;;;;;;;8.00;0.97;;;33.70;90.50;;;;;;6318744;22;20446;-82
2021/06/20 11:07:23;;;;;;;4.00;0.97;;;34.20;90.00;;;;;;6318064;22;20477;-83
2021/06/20 11:09:51;;;;;;;4.17;1.10;;;34.40;86.90;;;;;;6317223;22;20421;-83
2021/06/20 11:12:19;;;;;;;4.50;1.27;;;35.20;91.20;;;;;;6315089;22;20406;-82
2021/06/20 11:14:49;;;;;;;3.93;1.00;;;35.50;89.20;;;;;;6311874;22;20466;-83
2021/06/20 11:17:17;;;;;;;8.13;1.20;;;36.30;90.00;;;;;;6314380;22;20409;-82
2021/06/20 11:19:44;;;;;;;4.20;1.10;;;37.10;78.20;;;;;;6320564;22;20453;-81
2021/06/20 11:22:13;;;;;;;4.87;1.47;;;36.60;74.90;;;;;;6320928;22;20410;-83
2021/06/20 11:24:42;;;;;;;4.20;1.00;;;36.50;80.00;;;;;;6313070;22;20532;-83
2021/06/20 11:27:11;;;;;;;4.03;1.10;;;35.40;75.00;;;;;;6320415;22;20419;-82
2021/06/20 11:29:42;;;;;;;4.50;1.20;;;34.20;76.10;;;;;;6320127;22;20486;-83
2021/06/20 11:32:16;;;;;;;4.20;1.10;;;33.80;77.50;;;;;;6319599;22;20397;-83
2021/06/20 11:34:45;;;;;;;4.90;1.30;;;34.00;82.60;;;;;;6315071;22;20841;-82
2021/06/20 11:37:19;;;;;;;5.17;1.40;;;35.10;79.50;;;;;;6310369;22;20441;-83
2021/06/20 11:39:48;;;;;;;4.10;1.07;;;35.20;81.90;;;;;;6310266;22;20409;-81
2021/06/20 11:42:24;;;;;;;5.20;1.23;;;35.60;79.50;;;;;;6308359;22;20504;-83
2021/06/20 11:44:57;;;;;;;4.50;1.10;;;36.00;73.60;;;;;;6309308;22;20508;-83
2021/06/20 11:47:32;;;;;;;5.00;1.10;;;36.20;79.60;;;;;;6310004;22;20434;-83
2021/06/20 11:50:13;;;;;;;4.50;1.00;;;35.40;73.70;;;;;;6311513;22;20436;-83
2021/06/20 11:52:42;;;;;;;4.43;1.00;;;33.20;71.00;;;;;;6311217;22;20418;-84
2021/06/20 11:55:13;;;;;;;3.90;1.00;;;32.60;81.90;;;;;;6312670;22;20410;-84
2021/06/20 11:57:40;;;;;;;5.00;1.30;;;32.30;81.60;;;;;;6312571;22;20399;-83
2021/06/20 12:00:18;;;;;;;5.83;1.50;;;31.90;79.00;;;;;;6312728;22;20493;-83
2021/06/20 12:02:46;;;;;;;4.63;1.23;;;31.40;86.50;;;;;;6313149;22;20414;-83
2021/06/20 12:05:14;;;;;;;4.60;1.10;;;31.10;90.40;;;;;;6310012;22;20500;-84
2021/06/20 12:07:42;;;;;;;4.03;1.17;;;31.80;86.60;;;;;;6311926;22;21182;-84
2021/06/20 12:10:12;;;;;;;4.90;1.50;;;32.30;81.40;;;;;;6310001;22;20526;-84
2021/06/20 12:12:39;;;;;;;4.63;1.17;;;32.80;88.10;;;;;;6313560;22;20473;-84
2021/06/20 12:15:08;;;;;;;4.40;1.10;;;34.50;84.90;;;;;;6315219;22;20424;-83
2021/06/20 12:17:39;;;;;;;5.60;1.37;;;34.80;85.30;;;;;;6320816;22;20405;-82
2021/06/20 12:20:07;;;;;;;4.30;1.13;;;34.80;90.60;;;;;;6328096;22;20373;-82
2021/06/20 12:22:47;;;;;;;5.97;1.17;;;35.60;81.80;;;;;;6330399;22;20394;-82
2021/06/20 12:25:14;;;;;;;4.70;1.20;;;36.80;76.00;;;;;;6333381;22;20416;-82
2021/06/20 12:27:41;;;;;;;4.10;1.10;;;38.40;75.90;;;;;;6319851;22;20500;-85
2021/06/20 12:30:17;;;;;;;4.30;1.10;;;39.40;71.60;;;;;;6315902;22;20445;-85
2021/06/20 12:32:48;;;;;;;4.37;1.27;;;36.90;62.70;;;;;;6313041;22;20435;-85
2021/06/20 12:35:23;;;;;;;4.63;1.20;;;36.30;74.30;;;;;;6318170;22;20443;-85